createdAt,value
2023-09-29T00:00:51.678Z,0.00
2023-09-29T00:01:51.579Z,0.00
2023-09-29T00:02:51.631Z,0.00
2023-09-29T00:03:51.455Z,0.00
2023-09-29T00:04:51.341Z,0.00
2023-09-29T00:05:51.271Z,0.00
2023-09-29T00:06:51.174Z,0.00
2023-09-29T00:07:51.094Z,0.00
2023-09-29T00:08:51.038Z,0.00
2023-09-29T00:09:50.931Z,0.00
2023-09-29T00:10:50.855Z,0.00
2023-09-29T00:11:50.813Z,0.00
2023-09-29T00:12:50.696Z,0.00
2023-09-29T00:13:50.613Z,0.00
2023-09-29T00:14:50.554Z,0.00
2023-09-29T00:15:50.468Z,0.00
2023-09-29T00:16:50.379Z,0.00
2023-09-29T00:17:50.360Z,0.00
2023-09-29T00:18:50.219Z,0.00
2023-09-29T00:19:50.144Z,0.00
2023-09-29T00:20:50.077Z,0.00
2023-09-29T00:21:49.977Z,0.00
2023-09-29T00:22:49.902Z,0.00
2023-09-29T00:23:49.885Z,0.00
2023-09-29T00:24:49.771Z,0.00
2023-09-29T00:25:49.662Z,0.00
2023-09-29T00:26:49.695Z,0.00
2023-09-29T00:27:49.511Z,0.00
2023-09-29T00:28:49.422Z,0.00
2023-09-29T00:29:49.387Z,0.00
2023-09-29T00:30:49.269Z,0.00
2023-09-29T00:31:49.196Z,0.00
2023-09-29T00:32:49.221Z,0.00
2023-09-29T00:33:49.024Z,0.00
2023-09-29T00:34:48.951Z,0.00
2023-09-29T00:35:48.885Z,0.00
2023-09-29T00:36:48.789Z,0.00
2023-09-29T00:37:48.753Z,0.00
2023-09-29T00:38:48.656Z,0.00
2023-09-29T00:39:48.544Z,0.00
2023-09-29T00:40:48.508Z,0.00
2023-09-29T00:41:48.424Z,0.00
2023-09-29T00:42:48.312Z,0.00
2023-09-29T00:43:48.265Z,0.00
2023-09-29T00:44:48.223Z,0.00
2023-09-29T00:45:48.092Z,0.00
2023-09-29T00:46:47.993Z,0.00
2023-09-29T00:47:47.995Z,0.00
2023-09-29T00:48:47.831Z,0.00
2023-09-29T00:49:47.761Z,0.00
2023-09-29T00:50:47.712Z,0.00
2023-09-29T00:51:47.588Z,0.00
2023-09-29T00:52:47.516Z,0.00
2023-09-29T00:53:47.463Z,0.00
2023-09-29T00:54:47.535Z,0.00
2023-09-29T00:55:47.275Z,0.00
2023-09-29T00:56:47.256Z,0.00
2023-09-29T00:57:47.114Z,0.00
2023-09-29T00:58:47.034Z,0.00
2023-09-29T00:59:46.967Z,0.00
2023-09-29T01:00:47.033Z,0.00
2023-09-29T01:01:46.800Z,0.00
2023-09-29T01:02:46.831Z,0.00
2023-09-29T01:03:46.797Z,0.00
2023-09-29T01:04:46.561Z,0.00
2023-09-29T01:05:46.594Z,0.00
2023-09-29T01:06:46.400Z,0.00
2023-09-29T01:07:46.342Z,0.00
2023-09-29T01:08:46.269Z,0.00
2023-09-29T01:09:46.161Z,0.00
2023-09-29T01:10:46.084Z,0.00
2023-09-29T01:11:46.038Z,0.00
2023-09-29T01:12:45.921Z,0.00
2023-09-29T01:13:45.858Z,0.00
2023-09-29T01:14:45.801Z,0.00
2023-09-29T01:15:45.748Z,0.00
2023-09-29T01:16:45.607Z,0.00
2023-09-29T01:17:45.558Z,0.00
2023-09-29T01:18:45.463Z,0.00
2023-09-29T01:19:45.374Z,0.00
2023-09-29T01:20:45.589Z,0.00
2023-09-29T01:21:45.212Z,0.00
2023-09-29T01:22:45.134Z,0.00
2023-09-29T01:23:45.095Z,0.00
2023-09-29T01:24:44.982Z,0.00
2023-09-29T01:25:44.927Z,0.00
2023-09-29T01:26:44.827Z,0.00
2023-09-29T01:27:44.740Z,0.00
2023-09-29T01:28:44.650Z,0.00
2023-09-29T01:29:44.651Z,0.00
2023-09-29T01:30:44.670Z,0.00
2023-09-29T01:31:44.443Z,0.00
2023-09-29T01:32:44.377Z,0.00
2023-09-29T01:33:44.297Z,0.00
2023-09-29T01:34:44.181Z,0.00
2023-09-29T01:35:44.147Z,0.00
2023-09-29T01:36:44.029Z,0.00
2023-09-29T01:37:43.955Z,0.00
2023-09-29T01:38:43.946Z,0.00
2023-09-29T01:39:43.782Z,0.00
2023-09-29T01:40:43.694Z,0.00
2023-09-29T01:41:43.656Z,0.00
2023-09-29T01:42:43.549Z,0.00
2023-09-29T01:43:43.464Z,0.00
2023-09-29T01:44:43.388Z,0.00
2023-09-29T01:45:43.350Z,0.00
2023-09-29T01:46:43.228Z,0.00
2023-09-29T01:47:43.254Z,0.00
2023-09-29T01:48:43.127Z,0.00
2023-09-29T01:49:42.985Z,0.00
2023-09-29T01:50:42.911Z,0.00
2023-09-29T01:51:42.821Z,0.00
2023-09-29T01:52:42.750Z,0.00
2023-09-29T01:53:42.712Z,0.00
2023-09-29T01:54:42.583Z,0.00
2023-09-29T01:55:42.520Z,0.00
2023-09-29T01:56:42.503Z,0.00
2023-09-29T01:57:42.341Z,0.00
2023-09-29T01:58:42.265Z,0.00
2023-09-29T01:59:42.258Z,0.00
2023-09-29T02:00:42.114Z,0.00
2023-09-29T02:01:42.024Z,0.00
2023-09-29T02:02:42.040Z,0.00
2023-09-29T02:03:42.026Z,0.00
2023-09-29T02:04:41.784Z,0.00
2023-09-29T02:05:41.741Z,0.00
2023-09-29T02:06:41.649Z,0.00
2023-09-29T02:07:41.549Z,0.00
2023-09-29T02:08:41.517Z,0.00
2023-09-29T02:09:41.379Z,0.00
2023-09-29T02:10:41.304Z,0.00
2023-09-29T02:11:41.258Z,0.00
2023-09-29T02:12:41.137Z,0.00
2023-09-29T02:13:41.055Z,0.00
2023-09-29T02:14:40.990Z,0.00
2023-09-29T02:15:40.892Z,0.00
2023-09-29T02:16:40.812Z,0.00
2023-09-29T02:17:40.810Z,0.00
2023-09-29T02:18:40.826Z,0.00
2023-09-29T02:19:40.562Z,0.00
2023-09-29T02:20:40.538Z,0.00
2023-09-29T02:21:40.409Z,0.00
2023-09-29T02:22:40.326Z,0.00
2023-09-29T02:23:40.289Z,0.00
2023-09-29T02:24:40.170Z,0.00
2023-09-29T02:25:40.089Z,0.00
2023-09-29T02:26:40.052Z,0.00
2023-09-29T02:27:39.920Z,0.00
2023-09-29T02:28:39.842Z,0.00
2023-09-29T02:29:39.768Z,0.00
2023-09-29T02:30:39.684Z,0.00
2023-09-29T02:31:39.597Z,0.00
2023-09-29T02:32:39.538Z,0.00
2023-09-29T02:33:39.492Z,0.00
2023-09-29T02:34:39.354Z,0.00
2023-09-29T02:35:39.312Z,0.00
2023-09-29T02:36:39.223Z,0.00
2023-09-29T02:37:39.120Z,0.00
2023-09-29T02:38:39.078Z,0.00
2023-09-29T02:39:38.960Z,0.00
2023-09-29T02:40:38.879Z,0.00
2023-09-29T02:41:38.832Z,0.00
2023-09-29T02:42:38.709Z,0.00
2023-09-29T02:43:38.632Z,0.00
2023-09-29T02:44:38.562Z,0.00
2023-09-29T02:45:38.481Z,0.00
2023-09-29T02:46:38.431Z,0.00
2023-09-29T02:47:38.374Z,0.00
2023-09-29T02:48:38.293Z,0.00
2023-09-29T02:49:38.153Z,0.00
2023-09-29T02:50:38.130Z,0.00
2023-09-29T02:51:37.992Z,0.00
2023-09-29T02:52:37.911Z,0.00
2023-09-29T02:53:37.858Z,0.00
2023-09-29T02:54:37.749Z,0.00
2023-09-29T02:55:37.670Z,0.00
2023-09-29T02:56:37.644Z,0.00
2023-09-29T02:57:37.551Z,0.00
2023-09-29T02:58:37.433Z,0.00
2023-09-29T02:59:37.360Z,0.00
2023-09-29T03:00:37.299Z,0.00
2023-09-29T03:01:37.201Z,0.00
2023-09-29T03:02:37.177Z,0.00
2023-09-29T03:03:37.148Z,0.00
2023-09-29T03:04:36.945Z,0.00
2023-09-29T03:05:36.866Z,0.00
2023-09-29T03:06:36.786Z,0.00
2023-09-29T03:07:36.710Z,0.00
2023-09-29T03:08:36.673Z,0.00
2023-09-29T03:09:36.546Z,0.00
2023-09-29T03:10:36.459Z,0.00
2023-09-29T03:11:36.412Z,0.00
2023-09-29T03:12:36.314Z,0.00
2023-09-29T03:13:36.222Z,0.00
2023-09-29T03:14:36.159Z,0.00
2023-09-29T03:15:36.070Z,0.00
2023-09-29T03:16:36.002Z,0.00
2023-09-29T03:17:35.983Z,0.00
2023-09-29T03:18:35.900Z,0.00
2023-09-29T03:19:35.735Z,0.00
2023-09-29T03:20:35.693Z,0.00
2023-09-29T03:21:35.578Z,0.00
2023-09-29T03:22:35.504Z,0.00
2023-09-29T03:23:35.468Z,0.00
2023-09-29T03:24:35.335Z,0.00
2023-09-29T03:25:35.257Z,0.00
2023-09-29T03:26:35.206Z,0.00
2023-09-29T03:27:35.098Z,0.00
2023-09-29T03:28:35.019Z,0.00
2023-09-29T03:29:34.951Z,0.00
2023-09-29T03:30:34.909Z,0.00
2023-09-29T03:31:34.777Z,0.00
2023-09-29T03:32:34.732Z,0.00
2023-09-29T03:33:34.648Z,0.00
2023-09-29T03:34:34.531Z,0.00
2023-09-29T03:35:34.486Z,0.00
2023-09-29T03:36:34.372Z,0.00
2023-09-29T03:37:34.286Z,0.00
2023-09-29T03:38:34.216Z,0.00
2023-09-29T03:39:34.124Z,0.00
2023-09-29T03:40:34.055Z,0.00
2023-09-29T03:41:34.003Z,0.00
2023-09-29T03:42:33.901Z,0.00
2023-09-29T03:43:33.812Z,0.00
2023-09-29T03:44:33.760Z,0.00
2023-09-29T03:45:33.649Z,0.00
2023-09-29T03:46:33.616Z,0.00
2023-09-29T03:47:33.538Z,0.00
2023-09-29T03:48:33.507Z,0.00
2023-09-29T03:49:33.323Z,0.00
2023-09-29T03:50:33.270Z,0.00
2023-09-29T03:51:33.164Z,0.00
2023-09-29T03:52:33.085Z,0.00
2023-09-29T03:53:33.028Z,0.00
2023-09-29T03:54:32.920Z,0.00
2023-09-29T03:55:32.840Z,0.00
2023-09-29T03:56:32.802Z,0.00
2023-09-29T03:57:32.686Z,0.00
2023-09-29T03:58:32.606Z,0.00
2023-09-29T03:59:32.561Z,0.00
2023-09-29T04:00:32.446Z,0.00
2023-09-29T04:01:32.363Z,0.00
2023-09-29T04:02:32.323Z,0.00
2023-09-29T04:03:32.290Z,0.00
2023-09-29T04:04:32.133Z,0.00
2023-09-29T04:05:32.133Z,0.00
2023-09-29T04:06:32.087Z,0.00
2023-09-29T04:07:31.869Z,0.00
2023-09-29T04:08:31.822Z,0.00
2023-09-29T04:09:31.728Z,0.00
2023-09-29T04:10:31.634Z,0.00
2023-09-29T04:11:31.565Z,0.00
2023-09-29T04:12:31.477Z,0.00
2023-09-29T04:13:31.387Z,0.00
2023-09-29T04:14:34.526Z,0.00
2023-09-29T04:15:31.228Z,0.00
2023-09-29T04:16:31.187Z,0.00
2023-09-29T04:17:31.137Z,0.00
2023-09-29T04:18:31.035Z,0.00
2023-09-29T04:19:30.905Z,0.00
2023-09-29T04:20:30.837Z,0.00
2023-09-29T04:21:30.747Z,0.00
2023-09-29T04:22:30.674Z,0.00
2023-09-29T04:23:30.649Z,0.00
2023-09-29T04:24:30.509Z,0.00
2023-09-29T04:25:30.417Z,0.00
2023-09-29T04:26:30.394Z,0.00
2023-09-29T04:27:30.253Z,0.00
2023-09-29T04:28:30.177Z,0.00
2023-09-29T04:29:30.131Z,0.00
2023-09-29T04:30:30.046Z,0.00
2023-09-29T04:31:29.949Z,0.00
2023-09-29T04:32:29.913Z,0.00
2023-09-29T04:33:29.939Z,0.00
2023-09-29T04:34:29.701Z,0.00
2023-09-29T04:35:29.619Z,0.00
2023-09-29T04:36:29.529Z,0.00
2023-09-29T04:37:29.489Z,0.00
2023-09-29T04:38:29.381Z,0.00
2023-09-29T04:39:29.292Z,0.00
2023-09-29T04:40:29.210Z,0.00
2023-09-29T04:41:29.162Z,0.00
2023-09-29T04:42:29.059Z,0.00
2023-09-29T04:43:28.966Z,0.00
2023-09-29T04:44:28.959Z,0.00
2023-09-29T04:45:28.799Z,0.00
2023-09-29T04:46:28.736Z,0.00
2023-09-29T04:47:28.763Z,0.00
2023-09-29T04:48:28.638Z,0.00
2023-09-29T04:49:28.479Z,0.00
2023-09-29T04:50:28.571Z,0.00
2023-09-29T04:51:28.326Z,4.00
2023-09-29T04:52:28.242Z,0.00
2023-09-29T04:53:28.163Z,0.00
2023-09-29T04:54:28.073Z,4.00
2023-09-29T04:55:27.993Z,0.00
2023-09-29T04:56:27.917Z,0.00
2023-09-29T04:57:27.834Z,4.00
2023-09-29T04:58:27.759Z,0.00
2023-09-29T04:59:27.672Z,4.00
2023-09-29T05:00:27.658Z,4.00
2023-09-29T05:01:27.509Z,4.00
2023-09-29T05:02:27.473Z,4.00
2023-09-29T05:03:27.431Z,4.00
2023-09-29T05:04:27.326Z,8.00
2023-09-29T05:05:27.187Z,8.00
2023-09-29T05:06:27.116Z,8.00
2023-09-29T05:07:27.025Z,8.00
2023-09-29T05:08:26.950Z,12.00
2023-09-29T05:09:26.867Z,12.00
2023-09-29T05:10:26.791Z,12.00
2023-09-29T05:11:26.710Z,12.00
2023-09-29T05:12:26.621Z,16.00
2023-09-29T05:13:26.546Z,16.00
2023-09-29T05:14:26.461Z,16.00
2023-09-29T05:15:26.377Z,20.00
2023-09-29T05:16:26.331Z,20.00
2023-09-29T05:17:36.757Z,20.00
2023-09-29T05:18:26.193Z,24.00
2023-09-29T05:19:26.060Z,28.00
2023-09-29T05:20:25.983Z,28.00
2023-09-29T05:21:25.896Z,32.00
2023-09-29T05:22:25.819Z,32.00
2023-09-29T05:23:25.732Z,36.00
2023-09-29T05:24:25.648Z,36.00
2023-09-29T05:25:25.574Z,40.00
2023-09-29T05:26:25.502Z,44.00
2023-09-29T05:27:25.412Z,44.00
2023-09-29T05:28:25.333Z,48.00
2023-09-29T05:29:25.241Z,52.00
2023-09-29T05:30:25.198Z,52.00
2023-09-29T05:31:25.091Z,60.00
2023-09-29T05:32:25.015Z,60.00
2023-09-29T05:33:25.111Z,64.00
2023-09-29T05:34:24.850Z,64.00
2023-09-29T05:35:24.763Z,68.00
2023-09-29T05:36:24.683Z,76.00
2023-09-29T05:37:24.609Z,76.00
2023-09-29T05:38:24.533Z,84.00
2023-09-29T05:39:24.438Z,88.00
2023-09-29T05:40:24.362Z,92.00
2023-09-29T05:41:24.282Z,96.00
2023-09-29T05:43:24.214Z,104.00
2023-09-29T05:44:24.039Z,108.00
2023-09-29T05:45:23.952Z,112.00
2023-09-29T05:46:23.898Z,116.00
2023-09-29T05:47:23.789Z,120.00
2023-09-29T05:48:23.761Z,120.00
2023-09-29T05:49:23.631Z,124.00
2023-09-29T05:50:23.579Z,128.00
2023-09-29T05:51:23.465Z,132.00
2023-09-29T05:52:23.428Z,136.00
2023-09-29T05:53:23.314Z,136.00
2023-09-29T05:54:23.226Z,140.00
2023-09-29T05:55:23.143Z,144.00
2023-09-29T05:56:23.061Z,148.00
2023-09-29T05:57:22.980Z,148.00
2023-09-29T05:58:22.931Z,148.00
2023-09-29T05:59:22.819Z,152.00
2023-09-29T06:00:22.737Z,152.00
2023-09-29T06:01:22.674Z,156.00
2023-09-29T06:02:22.593Z,160.00
2023-09-29T06:03:22.564Z,168.00
2023-09-29T06:04:22.669Z,168.00
2023-09-29T06:05:22.325Z,172.00
2023-09-29T06:06:22.251Z,176.00
2023-09-29T06:07:22.174Z,180.00
2023-09-29T06:08:22.097Z,184.00
2023-09-29T06:09:22.049Z,188.00
2023-09-29T06:10:21.934Z,196.00
2023-09-29T06:11:21.863Z,196.00
2023-09-29T06:12:21.769Z,204.00
2023-09-29T06:13:21.689Z,208.00
2023-09-29T06:14:21.618Z,204.00
2023-09-29T06:15:21.545Z,212.00
2023-09-29T06:16:21.466Z,212.00
2023-09-29T06:17:21.366Z,216.00
2023-09-29T06:18:21.341Z,224.00
2023-09-29T06:19:21.225Z,228.00
2023-09-29T06:20:21.138Z,232.00
2023-09-29T06:21:21.039Z,232.00
2023-09-29T06:22:20.968Z,240.00
2023-09-29T06:23:20.888Z,244.00
2023-09-29T06:24:20.849Z,248.00
2023-09-29T06:25:20.717Z,248.00
2023-09-29T06:26:20.673Z,252.00
2023-09-29T06:27:20.590Z,256.00
2023-09-29T06:28:20.491Z,264.00
2023-09-29T06:29:20.403Z,268.00
2023-09-29T06:30:20.321Z,272.00
2023-09-29T06:31:20.308Z,280.00
2023-09-29T06:32:20.364Z,292.00
2023-09-29T06:33:20.140Z,300.00
2023-09-29T06:34:20.088Z,308.00
2023-09-29T06:35:19.915Z,316.00
2023-09-29T06:36:19.841Z,324.00
2023-09-29T06:37:19.765Z,332.00
2023-09-29T06:38:19.693Z,344.00
2023-09-29T06:39:19.601Z,356.00
2023-09-29T06:40:19.583Z,360.00
2023-09-29T06:41:19.440Z,368.00
2023-09-29T06:42:19.361Z,380.00
2023-09-29T06:43:19.277Z,380.00
2023-09-29T06:44:19.201Z,384.00
2023-09-29T06:45:19.123Z,388.00
2023-09-29T06:46:19.038Z,392.00
2023-09-29T06:47:18.951Z,392.00
2023-09-29T06:48:20.748Z,400.00
2023-09-29T06:49:18.835Z,400.00
2023-09-29T06:50:18.719Z,400.00
2023-09-29T06:51:18.635Z,404.00
2023-09-29T06:52:18.551Z,408.00
2023-09-29T06:53:18.482Z,412.00
2023-09-29T06:54:18.435Z,408.00
2023-09-29T06:55:18.321Z,420.00
2023-09-29T06:56:18.230Z,424.00
2023-09-29T06:57:18.242Z,424.00
2023-09-29T06:58:18.072Z,432.00
2023-09-29T06:59:18.003Z,436.00
2023-09-29T07:00:17.981Z,432.00
2023-09-29T07:01:17.855Z,436.00
2023-09-29T07:02:18.782Z,436.00
2023-09-29T07:03:17.767Z,444.00
2023-09-29T07:04:17.733Z,444.00
2023-09-29T07:05:17.524Z,456.00
2023-09-29T07:06:17.500Z,464.00
2023-09-29T07:07:17.355Z,488.00
2023-09-29T07:08:17.280Z,504.00
2023-09-29T07:09:17.287Z,524.00
2023-09-29T07:10:17.112Z,532.00
2023-09-29T07:11:17.040Z,548.00
2023-09-29T07:12:17.023Z,572.00
2023-09-29T07:13:16.889Z,592.00
2023-09-29T07:14:16.801Z,616.00
2023-09-29T07:15:16.769Z,648.00
2023-09-29T07:16:16.663Z,684.00
2023-09-29T07:17:16.568Z,740.00
2023-09-29T07:18:16.557Z,748.00
2023-09-29T07:19:16.401Z,800.00
2023-09-29T07:20:16.326Z,836.00
2023-09-29T07:21:16.295Z,884.00
2023-09-29T07:22:16.170Z,920.00
2023-09-29T07:23:16.084Z,956.00
2023-09-29T07:24:16.054Z,996.00
2023-09-29T07:25:15.928Z,1024.00
2023-09-29T07:26:15.854Z,1072.00
2023-09-29T07:27:15.860Z,1096.00
2023-09-29T07:28:15.708Z,1160.00
2023-09-29T07:29:15.609Z,1220.00
2023-09-29T07:30:15.620Z,1288.00
2023-09-29T07:31:15.473Z,1348.00
2023-09-29T07:32:15.376Z,1380.00
2023-09-29T07:33:15.329Z,1440.00
2023-09-29T07:34:15.219Z,1496.00
2023-09-29T07:35:15.157Z,1544.00
2023-09-29T07:36:15.096Z,1592.00
2023-09-29T07:37:14.979Z,1636.00
2023-09-29T07:38:14.913Z,1676.00
2023-09-29T07:39:14.992Z,1720.00
2023-09-29T07:40:14.742Z,1752.00
2023-09-29T07:41:14.675Z,1780.00
2023-09-29T07:42:14.614Z,1808.00
2023-09-29T07:43:14.506Z,1836.00
2023-09-29T07:44:14.438Z,1864.00
2023-09-29T07:45:14.401Z,1888.00
2023-09-29T07:46:14.363Z,1888.00
2023-09-29T07:47:14.206Z,1976.00
2023-09-29T07:48:14.187Z,1396.00
2023-09-29T07:49:14.040Z,1336.00
2023-09-29T07:50:13.962Z,1588.00
2023-09-29T07:51:13.938Z,1676.00
2023-09-29T07:52:13.810Z,2144.00
2023-09-29T07:53:13.729Z,2160.00
2023-09-29T07:54:13.699Z,2176.00
2023-09-29T07:55:13.618Z,2208.00
2023-09-29T07:56:13.496Z,2228.00
2023-09-29T07:57:13.469Z,2252.00
2023-09-29T07:58:13.361Z,2276.00
2023-09-29T07:59:13.271Z,2296.00
2023-09-29T08:00:13.254Z,2312.00
2023-09-29T08:01:13.120Z,2340.00
2023-09-29T08:02:13.090Z,2384.00
2023-09-29T08:03:13.139Z,2376.00
2023-09-29T08:04:13.005Z,2460.00
2023-09-29T08:05:12.810Z,2484.00
2023-09-29T08:06:12.790Z,1880.00
2023-09-29T08:07:12.649Z,2524.00
2023-09-29T08:08:12.585Z,2516.00
2023-09-29T08:09:12.560Z,2240.00
2023-09-29T08:10:12.430Z,2376.00
2023-09-29T08:11:12.347Z,1120.00
2023-09-29T08:12:12.306Z,2776.00
2023-09-29T08:13:12.190Z,2712.00
2023-09-29T08:14:12.119Z,1412.00
2023-09-29T08:15:12.106Z,2232.00
2023-09-29T08:16:12.029Z,1048.00
2023-09-29T08:17:11.883Z,920.00
2023-09-29T08:18:11.864Z,1244.00
2023-09-29T08:19:11.726Z,1040.00
2023-09-29T08:20:11.656Z,988.00
2023-09-29T08:21:11.596Z,2704.00
2023-09-29T08:22:12.039Z,2500.00
2023-09-29T08:23:11.428Z,1932.00
2023-09-29T08:24:11.406Z,2668.00
2023-09-29T08:25:11.284Z,2660.00
2023-09-29T08:26:11.187Z,2680.00
2023-09-29T08:27:11.171Z,2632.00
2023-09-29T08:28:11.046Z,2720.00
2023-09-29T08:29:10.967Z,2744.00
2023-09-29T08:30:10.967Z,2776.00
2023-09-29T08:31:10.918Z,2800.00
2023-09-29T08:32:10.750Z,2820.00
2023-09-29T08:33:20.909Z,2856.00
2023-09-29T08:34:10.636Z,2844.00
2023-09-29T08:35:10.520Z,2928.00
2023-09-29T08:36:10.457Z,3004.00
2023-09-29T08:37:10.360Z,3116.00
2023-09-29T08:38:10.285Z,2100.00
2023-09-29T08:39:10.262Z,944.00
2023-09-29T08:40:10.140Z,916.00
2023-09-29T08:41:10.069Z,900.00
2023-09-29T08:42:10.048Z,988.00
2023-09-29T08:43:09.905Z,936.00
2023-09-29T08:44:09.922Z,940.00
2023-09-29T08:45:09.803Z,964.00
2023-09-29T08:46:09.719Z,980.00
2023-09-29T08:47:09.613Z,1008.00
2023-09-29T08:48:09.571Z,1060.00
2023-09-29T08:49:09.462Z,1152.00
2023-09-29T08:50:09.384Z,1208.00
2023-09-29T08:51:09.335Z,1144.00
2023-09-29T08:52:09.235Z,1108.00
2023-09-29T08:53:09.162Z,1156.00
2023-09-29T08:54:09.192Z,1064.00
2023-09-29T08:55:09.012Z,988.00
2023-09-29T08:56:08.941Z,940.00
2023-09-29T08:57:08.897Z,952.00
2023-09-29T08:58:08.803Z,892.00
2023-09-29T08:59:08.709Z,896.00
2023-09-29T09:00:08.716Z,920.00
2023-09-29T09:01:08.565Z,928.00
2023-09-29T09:02:08.538Z,912.00
2023-09-29T09:03:08.540Z,900.00
2023-09-29T09:04:08.545Z,892.00
2023-09-29T09:05:08.269Z,876.00
2023-09-29T09:06:08.204Z,860.00
2023-09-29T09:07:08.129Z,844.00
2023-09-29T09:08:08.041Z,832.00
2023-09-29T09:09:07.974Z,832.00
2023-09-29T09:10:13.009Z,840.00
2023-09-29T09:11:07.819Z,824.00
2023-09-29T09:12:07.856Z,812.00
2023-09-29T09:13:07.702Z,808.00
2023-09-29T09:14:07.587Z,820.00
2023-09-29T09:15:09.528Z,836.00
2023-09-29T09:16:07.499Z,844.00
2023-09-29T09:17:07.363Z,864.00
2023-09-29T09:18:07.339Z,876.00
2023-09-29T09:19:07.266Z,892.00
2023-09-29T09:20:07.149Z,924.00
2023-09-29T09:21:07.108Z,964.00
2023-09-29T09:22:06.994Z,984.00
2023-09-29T09:23:06.918Z,1020.00
2023-09-29T09:24:06.858Z,1024.00
2023-09-29T09:25:06.771Z,1236.00
2023-09-29T09:26:06.696Z,1156.00
2023-09-29T09:27:06.631Z,1272.00
2023-09-29T09:28:06.596Z,1368.00
2023-09-29T09:29:06.473Z,1716.00
2023-09-29T09:30:06.420Z,2804.00
2023-09-29T09:31:06.354Z,2040.00
2023-09-29T09:32:06.237Z,1828.00
2023-09-29T09:33:06.466Z,1788.00
2023-09-29T09:34:06.090Z,1568.00
2023-09-29T09:35:06.017Z,1804.00
2023-09-29T09:36:05.968Z,1364.00
2023-09-29T09:37:05.864Z,1512.00
2023-09-29T09:38:05.906Z,1584.00
2023-09-29T09:39:05.798Z,2104.00
2023-09-29T09:40:05.688Z,1844.00
2023-09-29T09:41:05.574Z,1748.00
2023-09-29T09:42:05.517Z,1912.00
2023-09-29T09:43:05.428Z,1916.00
2023-09-29T09:44:05.349Z,2020.00
2023-09-29T09:45:05.302Z,3124.00
2023-09-29T09:46:05.220Z,3632.00
2023-09-29T09:47:05.121Z,1584.00
2023-09-29T09:48:06.014Z,1476.00
2023-09-29T09:49:04.980Z,1284.00
2023-09-29T09:50:04.909Z,1356.00
2023-09-29T09:51:04.843Z,1196.00
2023-09-29T09:52:04.760Z,1172.00
2023-09-29T09:53:04.682Z,1188.00
2023-09-29T09:54:04.656Z,1196.00
2023-09-29T09:55:04.531Z,1188.00
2023-09-29T09:56:04.458Z,1184.00
2023-09-29T09:57:04.413Z,1176.00
2023-09-29T09:58:04.306Z,1164.00
2023-09-29T09:59:04.231Z,1160.00
2023-09-29T10:00:04.203Z,1164.00
2023-09-29T10:01:04.087Z,1140.00
2023-09-29T10:02:04.092Z,1088.00
2023-09-29T10:03:04.000Z,1080.00
2023-09-29T10:04:04.031Z,1108.00
2023-09-29T10:05:03.798Z,1104.00
2023-09-29T10:06:03.796Z,1144.00
2023-09-29T10:07:03.645Z,1220.00
2023-09-29T10:08:03.573Z,1376.00
2023-09-29T10:09:03.510Z,1208.00
2023-09-29T10:10:03.421Z,1060.00
2023-09-29T10:11:03.345Z,1036.00
2023-09-29T10:12:03.318Z,1028.00
2023-09-29T10:13:03.216Z,1048.00
2023-09-29T10:14:03.122Z,1092.00
2023-09-29T10:15:03.073Z,1132.00
2023-09-29T10:16:02.988Z,1176.00
2023-09-29T10:17:02.907Z,1200.00
2023-09-29T10:18:02.901Z,1256.00
2023-09-29T10:19:02.757Z,1200.00
2023-09-29T10:20:02.688Z,1124.00
2023-09-29T10:21:02.690Z,1092.00
2023-09-29T10:22:02.540Z,1096.00
2023-09-29T10:23:02.467Z,1124.00
2023-09-29T10:24:02.544Z,1192.00
2023-09-29T10:25:02.311Z,1240.00
2023-09-29T10:26:02.241Z,1420.00
2023-09-29T10:27:02.215Z,1672.00
2023-09-29T10:28:02.104Z,1360.00
2023-09-29T10:29:02.176Z,1336.00
2023-09-29T10:30:02.011Z,1252.00
2023-09-29T10:31:01.873Z,1436.00
2023-09-29T10:32:01.853Z,1280.00
2023-09-29T10:33:01.762Z,1372.00
2023-09-29T10:34:01.860Z,1672.00
2023-09-29T10:35:01.580Z,1688.00
2023-09-29T10:36:01.583Z,1348.00
2023-09-29T10:37:01.435Z,1292.00
2023-09-29T10:38:01.353Z,1304.00
2023-09-29T10:39:01.347Z,1288.00
2023-09-29T10:40:01.212Z,1408.00
2023-09-29T10:41:04.328Z,1556.00
2023-09-29T10:42:01.136Z,1504.00
2023-09-29T10:43:00.993Z,1468.00
2023-09-29T10:44:00.929Z,1440.00
2023-09-29T10:45:00.863Z,1344.00
2023-09-29T10:46:00.809Z,1228.00
2023-09-29T10:47:01.632Z,1156.00
2023-09-29T10:48:00.887Z,1104.00
2023-09-29T10:49:00.746Z,1060.00
2023-09-29T10:50:00.483Z,1036.00
2023-09-29T10:51:00.446Z,1024.00
2023-09-29T10:52:00.329Z,1024.00
2023-09-29T10:53:00.265Z,1020.00
2023-09-29T10:54:00.286Z,1036.00
2023-09-29T10:55:00.174Z,1032.00
2023-09-29T10:56:00.044Z,1036.00
2023-09-29T10:56:59.996Z,1032.00
2023-09-29T10:57:59.900Z,1032.00
2023-09-29T10:58:59.912Z,1032.00
2023-09-29T10:59:59.764Z,1020.00
2023-09-29T11:00:59.686Z,988.00
2023-09-29T11:01:59.615Z,984.00
2023-09-29T11:02:59.641Z,980.00
2023-09-29T11:03:59.804Z,928.00
2023-09-29T11:04:59.398Z,900.00
2023-09-29T11:05:59.444Z,876.00
2023-09-29T11:07:00.045Z,856.00
2023-09-29T11:07:59.182Z,832.00
2023-09-29T11:08:59.136Z,816.00
2023-09-29T11:09:59.027Z,800.00
2023-09-29T11:10:58.953Z,784.00
2023-09-29T11:11:58.892Z,776.00
2023-09-29T11:12:58.809Z,772.00
2023-09-29T11:13:58.918Z,780.00
2023-09-29T11:14:58.694Z,792.00
2023-09-29T11:15:58.594Z,816.00
2023-09-29T11:16:58.726Z,848.00
2023-09-29T11:17:58.495Z,880.00
2023-09-29T11:18:58.415Z,944.00
2023-09-29T11:19:58.302Z,1068.00
2023-09-29T11:20:58.289Z,1064.00
2023-09-29T11:21:58.152Z,1212.00
2023-09-29T11:22:58.076Z,1036.00
2023-09-29T11:23:58.314Z,1096.00
2023-09-29T11:24:57.939Z,1024.00
2023-09-29T11:25:57.900Z,988.00
2023-09-29T11:26:57.810Z,924.00
2023-09-29T11:27:57.725Z,876.00
2023-09-29T11:28:57.649Z,852.00
2023-09-29T11:29:57.649Z,828.00
2023-09-29T11:30:57.496Z,808.00
2023-09-29T11:31:57.499Z,800.00
2023-09-29T11:32:57.384Z,792.00
2023-09-29T11:33:57.512Z,788.00
2023-09-29T11:34:57.210Z,792.00
2023-09-29T11:36:06.196Z,788.00
2023-09-29T11:36:57.068Z,788.00
2023-09-29T11:37:56.997Z,784.00
2023-09-29T11:38:57.021Z,788.00
2023-09-29T11:39:56.847Z,784.00
2023-09-29T11:40:56.788Z,780.00
2023-09-29T11:41:56.735Z,772.00
2023-09-29T11:42:56.679Z,760.00
2023-09-29T11:43:56.790Z,752.00
2023-09-29T11:44:56.518Z,740.00
2023-09-29T11:45:56.453Z,736.00
2023-09-29T11:46:56.345Z,732.00
2023-09-29T11:47:56.367Z,732.00
2023-09-29T11:48:56.202Z,732.00
2023-09-29T11:49:56.134Z,732.00
2023-09-29T11:50:56.084Z,736.00
2023-09-29T11:51:55.983Z,740.00
2023-09-29T11:52:55.914Z,748.00
2023-09-29T11:53:56.133Z,756.00
2023-09-29T11:54:55.772Z,760.00
2023-09-29T11:55:55.700Z,764.00
2023-09-29T11:56:55.641Z,772.00
2023-09-29T11:57:55.555Z,776.00
2023-09-29T11:58:55.492Z,784.00
2023-09-29T11:59:55.489Z,792.00
2023-09-29T12:00:55.334Z,796.00
2023-09-29T12:01:55.314Z,796.00
2023-09-29T12:02:55.281Z,796.00
2023-09-29T12:03:55.436Z,800.00
2023-09-29T12:04:55.128Z,804.00
2023-09-29T12:05:55.011Z,808.00
2023-09-29T12:06:54.907Z,812.00
2023-09-29T12:07:54.832Z,820.00
2023-09-29T12:08:54.768Z,840.00
2023-09-29T12:09:54.687Z,864.00
2023-09-29T12:10:54.632Z,880.00
2023-09-29T12:11:54.613Z,892.00
2023-09-29T12:12:54.517Z,912.00
2023-09-29T12:13:54.577Z,976.00
2023-09-29T12:14:54.357Z,1000.00
2023-09-29T12:15:54.279Z,1104.00
2023-09-29T12:16:54.256Z,1080.00
2023-09-29T12:17:54.188Z,1040.00
2023-09-29T12:18:54.054Z,1272.00
2023-09-29T12:19:53.970Z,1240.00
2023-09-29T12:20:53.928Z,1796.00
2023-09-29T12:21:53.822Z,2060.00
2023-09-29T12:22:53.750Z,2480.00
2023-09-29T12:23:53.786Z,2436.00
2023-09-29T12:24:53.600Z,1896.00
2023-09-29T12:25:53.544Z,1620.00
2023-09-29T12:26:53.646Z,1840.00
2023-09-29T12:27:53.578Z,1904.00
2023-09-29T12:28:53.315Z,2088.00
2023-09-29T12:29:53.270Z,2156.00
2023-09-29T12:30:53.173Z,2200.00
2023-09-29T12:31:53.161Z,2196.00
2023-09-29T12:32:53.082Z,2132.00
2023-09-29T12:33:52.993Z,2188.00
2023-09-29T12:34:52.886Z,2208.00
2023-09-29T12:35:52.896Z,2256.00
2023-09-29T12:36:52.904Z,2280.00
2023-09-29T12:37:52.677Z,2184.00
2023-09-29T12:38:52.644Z,1604.00
2023-09-29T12:39:52.744Z,2288.00
2023-09-29T12:40:52.456Z,1864.00
2023-09-29T12:41:52.419Z,1760.00
2023-09-29T12:42:52.312Z,1416.00